createdAt,value
2022-08-22T00:04:41.856Z,57.6
2022-08-22T00:19:51.384Z,57.9
2022-08-22T00:35:00.451Z,58.2
2022-08-22T00:50:10.096Z,58.5
2022-08-22T01:05:19.441Z,58.9
2022-08-22T01:20:28.552Z,59.1
2022-08-22T01:35:37.742Z,59.3
2022-08-22T01:50:47.400Z,59.6
2022-08-22T02:05:56.922Z,59.9
2022-08-22T02:21:06.376Z,60.1
2022-08-22T02:36:15.486Z,60.5
2022-08-22T02:51:25.172Z,60.7
2022-08-22T03:06:37.131Z,61
2022-08-22T03:21:46.832Z,61.5
2022-08-22T03:36:56.339Z,61.5
2022-08-22T03:52:05.570Z,61.6
2022-08-22T04:07:35.087Z,61.9
2022-08-22T04:22:44.759Z,62
2022-08-22T04:37:53.648Z,62.2
2022-08-22T04:53:02.972Z,62.3
2022-08-22T05:08:12.192Z,62.5
2022-08-22T05:23:21.225Z,62.5
2022-08-22T05:38:32.909Z,62.4
2022-08-22T05:53:42.096Z,61.6
2022-08-22T06:08:51.837Z,62.2
2022-08-22T06:24:01.034Z,62.3
2022-08-22T06:39:16.611Z,62.4
2022-08-22T06:54:26.833Z,62.2
2022-08-22T07:09:36.022Z,62.1
2022-08-22T07:24:45.441Z,62
2022-08-22T07:39:55.201Z,61.8
2022-08-22T07:55:04.491Z,61.7
2022-08-22T08:10:14.188Z,62.3
2022-08-22T08:25:26.176Z,61.2
2022-08-22T08:40:39.304Z,60.8
2022-08-22T08:55:49.172Z,60.5
2022-08-22T09:10:58.273Z,60.1
2022-08-22T09:26:09.189Z,59.4
2022-08-22T09:41:22.062Z,58.8
2022-08-22T09:56:31.583Z,58.3
2022-08-22T10:11:44.026Z,57.7
2022-08-22T10:26:54.466Z,57.2
2022-08-22T10:42:04.335Z,56.6
2022-08-22T10:57:22.618Z,55.9
2022-08-22T11:12:41.605Z,54.9
2022-08-22T11:27:52.060Z,53.6
2022-08-22T11:43:06.282Z,53.8
2022-08-22T11:58:29.501Z,53.2
2022-08-22T12:13:42.048Z,45.4
2022-08-22T12:28:52.526Z,50.2
2022-08-22T12:44:03.367Z,49.2
2022-08-22T12:59:18.198Z,48.9
2022-08-22T13:14:27.035Z,50.7
2022-08-22T13:29:43.627Z,49.6
2022-08-22T13:45:02.370Z,48.4
2022-08-22T14:00:30.211Z,46.9
2022-08-22T14:15:46.586Z,47.3
2022-08-22T14:31:02.780Z,48.3
2022-08-22T14:46:16.526Z,45.6
2022-08-22T15:01:34.035Z,44.5
2022-08-22T15:16:47.807Z,43.4
2022-08-22T15:32:00.632Z,43.7
2022-08-22T15:47:31.593Z,45
2022-08-22T16:02:41.687Z,46.4
2022-08-22T16:17:54.036Z,46.6
2022-08-22T16:33:02.993Z,47
2022-08-22T16:48:11.392Z,47.2
2022-08-22T17:03:20.730Z,47.4
2022-08-22T17:18:29.564Z,47.4
2022-08-22T17:33:38.610Z,47.5
2022-08-22T17:48:47.547Z,47.7
2022-08-22T18:03:57.328Z,47.8
2022-08-22T18:19:06.029Z,48
2022-08-22T18:34:19.788Z,48.1
2022-08-22T18:49:29.055Z,48.2
2022-08-22T19:04:38.295Z,48.3
2022-08-22T19:19:47.301Z,48.4
2022-08-22T19:35:02.593Z,48.5
2022-08-22T19:50:13.628Z,48.9
2022-08-22T20:05:23.648Z,48.5
2022-08-22T20:20:36.393Z,48.1
2022-08-22T20:35:45.774Z,48.9
2022-08-22T20:50:54.908Z,48.7
2022-08-22T21:06:07.608Z,48.9
2022-08-22T21:21:18.546Z,49
2022-08-22T21:36:27.724Z,49.1
2022-08-22T21:51:37.430Z,49.3
2022-08-22T22:06:46.938Z,49.6
2022-08-22T22:21:56.325Z,49.8
2022-08-22T22:37:05.749Z,50
2022-08-22T22:52:15.827Z,50.1
2022-08-22T23:07:26.337Z,50.2
2022-08-22T23:22:35.055Z,50.3
2022-08-22T23:37:44.841Z,50.5
2022-08-22T23:52:54.524Z,50.6
